sensor_id;sensor_type;location;lat;lon;timestamp;pressure;altitude;pressure_sealevel;temperature;humidity
57990;BME280;58373;51.824;5.564;2024-03-06T00:00:11;101711.03;;;4.86;100.00
57990;BME280;58373;51.824;5.564;2024-03-06T00:02:37;101722.31;;;4.84;100.00
57990;BME280;58373;51.824;5.564;2024-03-06T00:05:02;101717.28;;;4.80;100.00
57990;BME280;58373;51.824;5.564;2024-03-06T00:07:27;101719.84;;;4.80;100.00
57990;BME280;58373;51.824;5.564;2024-03-06T00:09:53;101713.13;;;4.78;100.00
57990;BME280;58373;51.824;5.564;2024-03-06T00:12:18;101714.06;;;4.75;100.00
57990;BME280;58373;51.824;5.564;2024-03-06T00:14:43;101722.69;;;4.74;100.00
57990;BME280;58373;51.824;5.564;2024-03-06T00:17:08;101725.31;;;4.73;100.00
57990;BME280;58373;51.824;5.564;2024-03-06T00:19:34;101721.94;;;4.72;100.00
57990;BME280;58373;51.824;5.564;2024-03-06T00:21:59;101728.88;;;4.70;100.00
57990;BME280;58373;51.824;5.564;2024-03-06T00:24:26;101728.91;;;4.69;100.00
57990;BME280;58373;51.824;5.564;2024-03-06T00:26:51;101726.41;;;4.67;100.00
57990;BME280;58373;51.824;5.564;2024-03-06T00:29:16;101738.44;;;4.67;100.00
57990;BME280;58373;51.824;5.564;2024-03-06T00:31:42;101726.53;;;4.64;100.00
57990;BME280;58373;51.824;5.564;2024-03-06T00:34:07;101728.34;;;4.62;100.00
57990;BME280;58373;51.824;5.564;2024-03-06T00:36:33;101728.34;;;4.62;100.00
57990;BME280;58373;51.824;5.564;2024-03-06T00:38:58;101730.09;;;4.62;100.00
57990;BME280;58373;51.824;5.564;2024-03-06T00:41:24;101730.16;;;4.60;100.00
57990;BME280;58373;51.824;5.564;2024-03-06T00:43:49;101734.56;;;4.57;100.00
57990;BME280;58373;51.824;5.564;2024-03-06T00:46:14;101735.56;;;4.54;100.00
57990;BME280;58373;51.824;5.564;2024-03-06T00:48:39;101737.31;;;4.52;100.00
57990;BME280;58373;51.824;5.564;2024-03-06T00:51:05;101743.38;;;4.51;100.00
57990;BME280;58373;51.824;5.564;2024-03-06T00:53:32;101739.06;;;4.51;100.00
57990;BME280;58373;51.824;5.564;2024-03-06T00:55:57;101744.16;;;4.53;100.00
57990;BME280;58373;51.824;5.564;2024-03-06T00:58:23;101744.16;;;4.53;100.00
57990;BME280;58373;51.824;5.564;2024-03-06T01:00:48;101748.59;;;4.49;100.00
57990;BME280;58373;51.824;5.564;2024-03-06T01:03:13;101759.81;;;4.47;100.00
57990;BME280;58373;51.824;5.564;2024-03-06T01:05:38;101764.19;;;4.45;100.00
57990;BME280;58373;51.824;5.564;2024-03-06T01:08:03;101756.47;;;4.45;100.00
57990;BME280;58373;51.824;5.564;2024-03-06T01:10:29;101768.56;;;4.43;100.00
57990;BME280;58373;51.824;5.564;2024-03-06T01:12:54;101767.75;;;4.41;100.00
57990;BME280;58373;51.824;5.564;2024-03-06T01:15:19;101764.34;;;4.40;100.00
57990;BME280;58373;51.824;5.564;2024-03-06T01:17:44;101768.66;;;4.40;100.00
57990;BME280;58373;51.824;5.564;2024-03-06T01:20:09;101771.31;;;4.38;100.00
57990;BME280;58373;51.824;5.564;2024-03-06T01:22:35;101770.47;;;4.38;100.00
57990;BME280;58373;51.824;5.564;2024-03-06T01:25:00;101777.38;;;4.36;100.00
57990;BME280;58373;51.824;5.564;2024-03-06T01:27:29;101775.72;;;4.35;100.00
57990;BME280;58373;51.824;5.564;2024-03-06T01:29:54;101781.00;;;4.32;100.00
57990;BME280;58373;51.824;5.564;2024-03-06T01:32:19;101781.09;;;4.29;100.00
57990;BME280;58373;51.824;5.564;2024-03-06T01:34:44;101786.22;;;4.29;100.00
57990;BME280;58373;51.824;5.564;2024-03-06T01:37:09;101781.09;;;4.29;100.00
57990;BME280;58373;51.824;5.564;2024-03-06T01:39:35;101788.94;;;4.25;100.00
57990;BME280;58373;51.824;5.564;2024-03-06T01:42:01;101784.72;;;4.24;100.00
57990;BME280;58373;51.824;5.564;2024-03-06T01:44:26;101782.34;;;4.18;100.00
57990;BME280;58373;51.824;5.564;2024-03-06T01:46:51;101783.25;;;4.17;100.00
57990;BME280;58373;51.824;5.564;2024-03-06T01:49:17;101780.81;;;4.14;100.00
57990;BME280;58373;51.824;5.564;2024-03-06T01:51:42;101780.03;;;4.12;100.00
57990;BME280;58373;51.824;5.564;2024-03-06T01:54:10;101779.19;;;4.12;100.00
57990;BME280;58373;51.824;5.564;2024-03-06T01:56:35;101776.69;;;4.10;100.00
57990;BME280;58373;51.824;5.564;2024-03-06T01:59:03;101786.97;;;4.10;100.00
57990;BME280;58373;51.824;5.564;2024-03-06T02:01:28;101786.97;;;4.10;100.00
57990;BME280;58373;51.824;5.564;2024-03-06T02:03:54;101792.09;;;4.10;100.00
57990;BME280;58373;51.824;5.564;2024-03-06T02:06:19;101790.44;;;4.09;100.00
57990;BME280;58373;51.824;5.564;2024-03-06T02:08:45;101793.91;;;4.08;100.00
57990;BME280;58373;51.824;5.564;2024-03-06T02:11:10;101804.41;;;4.02;100.00
57990;BME280;58373;51.824;5.564;2024-03-06T02:13:37;101799.63;;;3.93;100.00
57990;BME280;58373;51.824;5.564;2024-03-06T02:16:02;101807.41;;;3.90;100.00
57990;BME280;58373;51.824;5.564;2024-03-06T02:18:27;101806.66;;;3.88;100.00
57990;BME280;58373;51.824;5.564;2024-03-06T02:20:52;101807.63;;;3.85;100.00
57990;BME280;58373;51.824;5.564;2024-03-06T02:23:17;101808.56;;;3.83;100.00
57990;BME280;58373;51.824;5.564;2024-03-06T02:25:45;101800.09;;;3.81;100.00
57990;BME280;58373;51.824;5.564;2024-03-06T02:28:13;101806.88;;;3.82;100.00
57990;BME280;58373;51.824;5.564;2024-03-06T02:30:38;101809.44;;;3.82;100.00
57990;BME280;58373;51.824;5.564;2024-03-06T02:33:04;101809.38;;;3.83;100.00
57990;BME280;58373;51.824;5.564;2024-03-06T02:35:29;101811.03;;;3.86;100.00
57990;BME280;58373;51.824;5.564;2024-03-06T02:37:55;101805.88;;;3.86;100.00
57990;BME280;58373;51.824;5.564;2024-03-06T02:40:21;101810.22;;;3.84;100.00
57990;BME280;58373;51.824;5.564;2024-03-06T02:42:47;101808.56;;;3.83;100.00
57990;BME280;58373;51.824;5.564;2024-03-06T02:45:12;101806.88;;;3.82;100.00
57990;BME280;58373;51.824;5.564;2024-03-06T02:47:38;101810.34;;;3.81;100.00
57990;BME280;58373;51.824;5.564;2024-03-06T02:50:04;101807.78;;;3.81;100.00
57990;BME280;58373;51.824;5.564;2024-03-06T02:52:30;101805.22;;;3.81;100.00
57990;BME280;58373;51.824;5.564;2024-03-06T02:54:55;101805.22;;;3.81;100.00
57990;BME280;58373;51.824;5.564;2024-03-06T02:57:21;101806.88;;;3.82;100.00
57990;BME280;58373;51.824;5.564;2024-03-06T02:59:46;101809.53;;;3.80;100.00
57990;BME280;58373;51.824;5.564;2024-03-06T03:02:12;101805.31;;;3.78;100.00
57990;BME280;58373;51.824;5.564;2024-03-06T03:04:37;101807.34;;;3.69;100.00
57990;BME280;58373;51.824;5.564;2024-03-06T03:07:02;101818.50;;;3.68;100.00
57990;BME280;58373;51.824;5.564;2024-03-06T03:09:28;101807.44;;;3.66;100.00
57990;BME280;58373;51.824;5.564;2024-03-06T03:11:53;101812.72;;;3.63;100.00
57990;BME280;58373;51.824;5.564;2024-03-06T03:14:18;101816.16;;;3.62;100.00
57990;BME280;58373;51.824;5.564;2024-03-06T03:16:43;101811.13;;;3.59;100.00
57990;BME280;58373;51.824;5.564;2024-03-06T03:19:09;101815.44;;;3.59;100.00
57990;BME280;58373;51.824;5.564;2024-03-06T03:21:34;101815.44;;;3.59;100.00
57990;BME280;58373;51.824;5.564;2024-03-06T03:23:59;101821.53;;;3.56;100.00
57990;BME280;58373;51.824;5.564;2024-03-06T03:26:24;101821.63;;;3.53;100.00
57990;BME280;58373;51.824;5.564;2024-03-06T03:28:50;101817.44;;;3.51;100.00
57990;BME280;58373;51.824;5.564;2024-03-06T03:31:15;101816.72;;;3.47;100.00
57990;BME280;58373;51.824;5.564;2024-03-06T03:33:40;101821.84;;;3.47;100.00
57990;BME280;58373;51.824;5.564;2024-03-06T03:36:06;101819.28;;;3.47;100.00
57990;BME280;58373;51.824;5.564;2024-03-06T03:38:34;101820.94;;;3.48;100.00
57990;BME280;58373;51.824;5.564;2024-03-06T03:41:03;101813.25;;;3.48;100.00
57990;BME280;58373;51.824;5.564;2024-03-06T03:43:30;101823.50;;;3.48;100.00
57990;BME280;58373;51.824;5.564;2024-03-06T03:45:56;101833.78;;;3.48;100.00
57990;BME280;58373;51.824;5.564;2024-03-06T03:48:21;101826.91;;;3.49;100.00
57990;BME280;58373;51.824;5.564;2024-03-06T03:50:46;101830.31;;;3.49;100.00
57990;BME280;58373;51.824;5.564;2024-03-06T03:53:11;101828.63;;;3.48;100.00
57990;BME280;58373;51.824;5.564;2024-03-06T03:55:36;101832.94;;;3.47;100.00
57990;BME280;58373;51.824;5.564;2024-03-06T03:58:02;101834.00;;;3.42;100.00
57990;BME280;58373;51.824;5.564;2024-03-06T04:00:27;101827.41;;;3.35;100.00
57990;BME280;58373;51.824;5.564;2024-03-06T04:02:52;101836.22;;;3.28;100.00
57990;BME280;58373;51.824;5.564;2024-03-06T04:05:17;101839.78;;;3.24;100.00
57990;BME280;58373;51.824;5.564;2024-03-06T04:07:42;101840.00;;;3.17;100.00
57990;BME280;58373;51.824;5.564;2024-03-06T04:10:08;101838.41;;;3.13;100.00
57990;BME280;58373;51.824;5.564;2024-03-06T04:12:35;101839.25;;;3.14;100.00
57990;BME280;58373;51.824;5.564;2024-03-06T04:15:01;101847.78;;;3.14;100.00
57990;BME280;58373;51.824;5.564;2024-03-06T04:17:26;101850.34;;;3.14;100.00
57990;BME280;58373;51.824;5.564;2024-03-06T04:19:51;101853.69;;;3.16;100.00
57990;BME280;58373;51.824;5.564;2024-03-06T04:22:21;101843.44;;;3.16;100.00
57990;BME280;58373;51.824;5.564;2024-03-06T04:24:47;101843.53;;;3.13;100.00
57990;BME280;58373;51.824;5.564;2024-03-06T04:27:12;101842.75;;;3.11;100.00
57990;BME280;58373;51.824;5.564;2024-03-06T04:29:37;101848.78;;;3.10;100.00
57990;BME280;58373;51.824;5.564;2024-03-06T04:32:03;101844.53;;;3.09;100.00
57990;BME280;58373;51.824;5.564;2024-03-06T04:34:28;101837.78;;;3.07;100.00
57990;BME280;58373;51.824;5.564;2024-03-06T04:36:54;101842.97;;;3.05;100.00
57990;BME280;58373;51.824;5.564;2024-03-06T04:39:19;101845.53;;;3.05;100.00
57990;BME280;58373;51.824;5.564;2024-03-06T04:41:44;101842.16;;;3.03;100.00
57990;BME280;58373;51.824;5.564;2024-03-06T04:44:09;101846.47;;;3.03;100.00
57990;BME280;58373;51.824;5.564;2024-03-06T04:46:34;101849.84;;;3.03;100.00
57990;BME280;58373;51.824;5.564;2024-03-06T04:49:00;101855.88;;;3.02;100.00
57990;BME280;58373;51.824;5.564;2024-03-06T04:51:25;101854.25;;;3.00;100.00
57990;BME280;58373;51.824;5.564;2024-03-06T04:53:50;101854.28;;;2.98;100.00
57990;BME280;58373;51.824;5.564;2024-03-06T04:56:15;101862.16;;;2.93;100.00
57990;BME280;58373;51.824;5.564;2024-03-06T04:58:43;101870.00;;;2.89;100.00
57990;BME280;58373;51.824;5.564;2024-03-06T05:01:09;101876.09;;;2.85;100.00
57990;BME280;58373;51.824;5.564;2024-03-06T05:03:35;101880.44;;;2.83;100.00
57990;BME280;58373;51.824;5.564;2024-03-06T05:06:00;101881.28;;;2.83;100.00
57990;BME280;58373;51.824;5.564;2024-03-06T05:08:25;101887.22;;;2.84;100.00
57990;BME280;58373;51.824;5.564;2024-03-06T05:10:50;101892.44;;;2.81;100.00
57990;BME280;58373;51.824;5.564;2024-03-06T05:13:19;101899.34;;;2.79;100.00
57990;BME280;58373;51.824;5.564;2024-03-06T05:15:44;101890.88;;;2.77;100.00
57990;BME280;58373;51.824;5.564;2024-03-06T05:18:09;101892.63;;;2.75;100.00
57990;BME280;58373;51.824;5.564;2024-03-06T05:20:35;101902.06;;;2.74;100.00
57990;BME280;58373;51.824;5.564;2024-03-06T05:23:00;101903.00;;;2.72;100.00
57990;BME280;58373;51.824;5.564;2024-03-06T05:25:25;101906.47;;;2.71;100.00
57990;BME280;58373;51.824;5.564;2024-03-06T05:27:50;101907.28;;;2.71;100.00
57990;BME280;58373;51.824;5.564;2024-03-06T05:30:15;101903.00;;;2.72;100.00
57990;BME280;58373;51.824;5.564;2024-03-06T05:32:41;101906.47;;;2.71;100.00
57990;BME280;58373;51.824;5.564;2024-03-06T05:35:08;101908.22;;;2.69;100.00
57990;BME280;58373;51.824;5.564;2024-03-06T05:37:35;101920.16;;;2.70;100.00
57990;BME280;58373;51.824;5.564;2024-03-06T05:40:00;101916.69;;;2.71;100.00
57990;BME280;58373;51.824;5.564;2024-03-06T05:42:25;101921.81;;;2.71;100.00
57990;BME280;58373;51.824;5.564;2024-03-06T05:44:50;101931.25;;;2.69;100.00
57990;BME280;58373;51.824;5.564;2024-03-06T05:47:19;101926.44;;;2.59;100.00
57990;BME280;58373;51.824;5.564;2024-03-06T05:49:45;101935.09;;;2.55;100.00
57990;BME280;58373;51.824;5.564;2024-03-06T05:52:10;101942.00;;;2.52;100.00
57990;BME280;58373;51.824;5.564;2024-03-06T05:54:35;101943.03;;;2.46;100.00
57990;BME280;58373;51.824;5.564;2024-03-06T05:57:02;101950.13;;;2.38;100.00
57990;BME280;58373;51.824;5.564;2024-03-06T05:59:28;101946.84;;;2.33;100.00
57990;BME280;58373;51.824;5.564;2024-03-06T06:01:53;101950.31;;;2.32;100.00
57990;BME280;58373;51.824;5.564;2024-03-06T06:04:19;101952.16;;;2.27;100.00
57990;BME280;58373;51.824;5.564;2024-03-06T06:06:44;101958.22;;;2.24;100.00
57990;BME280;58373;51.824;5.564;2024-03-06T06:09:09;101961.63;;;2.23;100.00
57990;BME280;58373;51.824;5.564;2024-03-06T06:11:40;101954.09;;;2.19;100.00
57990;BME280;58373;51.824;5.564;2024-03-06T06:14:06;101964.38;;;2.17;100.00
57990;BME280;58373;51.824;5.564;2024-03-06T06:16:34;101983.22;;;2.15;100.00
57990;BME280;58373;51.824;5.564;2024-03-06T06:18:59;101968.78;;;2.12;100.00
57990;BME280;58373;51.824;5.564;2024-03-06T06:21:25;101974.91;;;2.06;100.00
57990;BME280;58373;51.824;5.564;2024-03-06T06:23:50;101980.19;;;2.00;100.00
57990;BME280;58373;51.824;5.564;2024-03-06T06:26:15;101987.06;;;1.98;100.00
57990;BME280;58373;51.824;5.564;2024-03-06T06:28:41;101994.84;;;1.95;100.00
57990;BME280;58373;51.824;5.564;2024-03-06T06:31:07;101983.09;;;1.88;100.00
57990;BME280;58373;51.824;5.564;2024-03-06T06:33:32;101989.97;;;1.86;100.00
57990;BME280;58373;51.824;5.564;2024-03-06T06:35:57;101989.19;;;1.84;100.00
57990;BME280;58373;51.824;5.564;2024-03-06T06:38:22;102007.94;;;1.83;100.00
57990;BME280;58373;51.824;5.564;2024-03-06T06:40:48;101997.81;;;1.80;100.00
57990;BME280;58373;51.824;5.564;2024-03-06T06:43:13;102008.09;;;1.78;100.00
57990;BME280;58373;51.824;5.564;2024-03-06T06:45:38;102021.78;;;1.76;100.00
57990;BME280;58373;51.824;5.564;2024-03-06T06:48:03;102019.25;;;1.74;100.00
57990;BME280;58373;51.824;5.564;2024-03-06T06:50:29;102026.97;;;1.73;100.00
57990;BME280;58373;51.824;5.564;2024-03-06T06:52:55;102026.16;;;1.72;100.00
57990;BME280;58373;51.824;5.564;2024-03-06T06:55:20;102028.72;;;1.71;100.00
57990;BME280;58373;51.824;5.564;2024-03-06T06:57:48;102032.09;;;1.73;100.00
57990;BME280;58373;51.824;5.564;2024-03-06T07:00:13;102037.13;;;1.76;100.00
57990;BME280;58373;51.824;5.564;2024-03-06T07:02:41;102043.91;;;1.77;100.00
57990;BME280;58373;51.824;5.564;2024-03-06T07:05:07;102044.84;;;1.74;100.00
57990;BME280;58373;51.824;5.564;2024-03-06T07:07:33;102045.69;;;1.75;100.00
57990;BME280;58373;51.824;5.564;2024-03-06T07:09:58;102047.28;;;1.79;100.00
57990;BME280;58373;51.824;5.564;2024-03-06T07:12:23;102054.97;;;1.77;100.00
57990;BME280;58373;51.824;5.564;2024-03-06T07:14:49;102050.72;;;1.78;100.00
57990;BME280;58373;51.824;5.564;2024-03-06T07:17:14;102054.06;;;1.80;100.00
57990;BME280;58373;51.824;5.564;2024-03-06T07:19:39;102057.44;;;1.82;100.00
57990;BME280;58373;51.824;5.564;2024-03-06T07:22:04;102056.47;;;1.86;100.00
57990;BME280;58373;51.824;5.564;2024-03-06T07:24:29;102059.03;;;1.86;100.00
57990;BME280;58373;51.824;5.564;2024-03-06T07:26:55;102060.81;;;1.84;100.00
57990;BME280;58373;51.824;5.564;2024-03-06T07:29:20;102071.81;;;1.86;100.00
57990;BME280;58373;51.824;5.564;2024-03-06T07:31:45;102059.03;;;1.86;100.00
57990;BME280;58373;51.824;5.564;2024-03-06T07:34:10;102074.38;;;1.86;100.00
57990;BME280;58373;51.824;5.564;2024-03-06T07:36:36;102070.94;;;1.87;100.00
57990;BME280;58373;51.824;5.564;2024-03-06T07:39:01;102072.56;;;1.91;100.00
57990;BME280;58373;51.824;5.564;2024-03-06T07:41:27;102084.41;;;1.95;100.00
57990;BME280;58373;51.824;5.564;2024-03-06T07:43:53;102075.84;;;1.96;100.00
57990;BME280;58373;51.824;5.564;2024-03-06T07:46:18;102082.63;;;1.97;100.00
57990;BME280;58373;51.824;5.564;2024-03-06T07:48:43;102082.63;;;1.97;100.00
57990;BME280;58373;51.824;5.564;2024-03-06T07:51:12;102089.41;;;1.98;100.00
57990;BME280;58373;51.824;5.564;2024-03-06T07:53:37;102087.59;;;2.03;100.00
57990;BME280;58373;51.824;5.564;2024-03-06T07:56:02;102087.50;;;2.06;100.00
57990;BME280;58373;51.824;5.564;2024-03-06T07:58:28;102099.34;;;2.10;100.00
57990;BME280;58373;51.824;5.564;2024-03-06T08:00:53;102101.84;;;2.12;100.00
57990;BME280;58373;51.824;5.564;2024-03-06T08:03:20;102106.06;;;2.15;100.00
57990;BME280;58373;51.824;5.564;2024-03-06T08:05:45;102101.66;;;2.20;100.00
57990;BME280;58373;51.824;5.564;2024-03-06T08:08:11;102110.97;;;2.24;100.00
57990;BME280;58373;51.824;5.564;2024-03-06T08:10:36;102110.06;;;2.25;100.00
57990;BME280;58373;51.824;5.564;2024-03-06T08:13:01;102114.31;;;2.26;100.00
57990;BME280;58373;51.824;5.564;2024-03-06T08:15:26;102110.84;;;2.27;100.00
57990;BME280;58373;51.824;5.564;2024-03-06T08:17:51;102115.81;;;2.33;100.00
57990;BME280;58373;51.824;5.564;2024-03-06T08:20:17;102119.97;;;2.37;100.00
57990;BME280;58373;51.824;5.564;2024-03-06T08:22:42;102124.16;;;2.41;100.00
57990;BME280;58373;51.824;5.564;2024-03-06T08:25:08;102129.16;;;2.44;100.00
57990;BME280;58373;51.824;5.564;2024-03-06T08:27:38;102133.25;;;2.51;100.00
57990;BME280;58373;51.824;5.564;2024-03-06T08:30:04;102138.19;;;2.57;100.00
57990;BME280;58373;51.824;5.564;2024-03-06T08:32:30;102144.03;;;2.62;100.00
57990;BME280;58373;51.824;5.564;2024-03-06T08:34:55;102141.41;;;2.65;100.00
57990;BME280;58373;51.824;5.564;2024-03-06T08:37:20;102142.13;;;2.71;100.00
57990;BME280;58373;51.824;5.564;2024-03-06T08:39:45;102142.84;;;2.74;100.00
57990;BME280;58373;51.824;5.564;2024-03-06T08:42:11;102147.84;;;2.79;100.00
57990;BME280;58373;51.824;5.564;2024-03-06T08:44:37;102154.59;;;2.83;100.00
57990;BME280;58373;51.824;5.564;2024-03-06T08:47:02;102158.75;;;2.87;100.00
57990;BME280;58373;51.824;5.564;2024-03-06T08:49:28;102160.31;;;2.91;100.00
57990;BME280;58373;51.824;5.564;2024-03-06T08:51:53;102155.13;;;2.94;100.00
57990;BME280;58373;51.824;5.564;2024-03-06T08:54:18;102160.06;;;3.00;100.00
57990;BME280;58373;51.824;5.564;2024-03-06T08:56:43;102161.69;;;3.04;100.00
57990;BME280;58373;51.824;5.564;2024-03-06T08:59:09;102170.03;;;3.09;100.00
57990;BME280;58373;51.824;5.564;2024-03-06T09:01:34;102169.97;;;3.12;100.00
57990;BME280;58373;51.824;5.564;2024-03-06T09:03:59;102176.59;;;3.19;100.00
57990;BME280;58373;51.824;5.564;2024-03-06T09:06:25;102179.06;;;3.23;100.00
57990;BME280;58373;51.824;5.564;2024-03-06T09:08:50;102179.03;;;3.24;100.00
57990;BME280;58373;51.824;5.564;2024-03-06T09:11:15;102178.94;;;3.27;100.00
57990;BME280;58373;51.824;5.564;2024-03-06T09:13:40;102188.19;;;3.33;100.00
57990;BME280;58373;51.824;5.564;2024-03-06T09:16:05;102182.94;;;3.36;100.00
57990;BME280;58373;51.824;5.564;2024-03-06T09:18:31;102179.31;;;3.43;100.00
57990;BME280;58373;51.824;5.564;2024-03-06T09:20:56;102184.25;;;3.49;100.00
57990;BME280;58373;51.824;5.564;2024-03-06T09:23:21;102188.28;;;3.58;100.00
57990;BME280;58373;51.824;5.564;2024-03-06T09:25:46;102194.97;;;3.63;100.00
57990;BME280;58373;51.824;5.564;2024-03-06T09:28:13;102190.53;;;3.68;100.00
57990;BME280;58373;51.824;5.564;2024-03-06T09:30:38;102196.44;;;3.70;100.00
57990;BME280;58373;51.824;5.564;2024-03-06T09:33:03;102198.88;;;3.75;100.00
57990;BME280;58373;51.824;5.564;2024-03-06T09:35:28;102202.19;;;3.79;100.00
57990;BME280;58373;51.824;5.564;2024-03-06T09:37:54;102207.22;;;3.82;100.00
57990;BME280;58373;51.824;5.564;2024-03-06T09:40:20;102209.72;;;3.83;100.00
57990;BME280;58373;51.824;5.564;2024-03-06T09:42:45;102210.34;;;3.90;100.00
57990;BME280;58373;51.824;5.564;2024-03-06T09:45:10;102212.78;;;3.94;100.00
57990;BME280;58373;51.824;5.564;2024-03-06T09:47:36;102219.50;;;3.98;100.00
57990;BME280;58373;51.824;5.564;2024-03-06T09:50:03;102219.44;;;4.02;100.00
57990;BME280;58373;51.824;5.564;2024-03-06T09:52:31;102220.16;;;4.05;100.00
57990;BME280;58373;51.824;5.564;2024-03-06T09:54:56;102221.94;;;4.03;100.00
57990;BME280;58373;51.824;5.564;2024-03-06T09:57:21;102212.41;;;4.07;100.00
57990;BME280;58373;51.824;5.564;2024-03-06T09:59:47;102223.41;;;4.10;100.00
57990;BME280;58373;51.824;5.564;2024-03-06T10:02:58;102225.00;;;4.14;100.00
57990;BME280;58373;51.824;5.564;2024-03-06T10:04:58;102233.28;;;4.22;100.00
57990;BME280;58373;51.824;5.564;2024-03-06T10:07:23;102233.00;;;4.32;100.00
57990;BME280;58373;51.824;5.564;2024-03-06T10:09:48;102232.81;;;4.38;100.00
57990;BME280;58373;51.824;5.564;2024-03-06T10:12:17;102237.72;;;4.44;100.00
57990;BME280;58373;51.824;5.564;2024-03-06T10:14:50;102244.28;;;4.52;100.00
57990;BME280;58373;51.824;5.564;2024-03-06T10:17:18;102232.09;;;4.59;100.00
57990;BME280;58373;51.824;5.564;2024-03-06T10:19:44;102242.16;;;4.65;100.00
57990;BME280;58373;51.824;5.564;2024-03-06T10:22:15;102246.28;;;4.69;100.00
57990;BME280;58373;51.824;5.564;2024-03-06T10:24:41;102248.75;;;4.72;100.00
57990;BME280;58373;51.824;5.564;2024-03-06T10:27:06;102247.72;;;4.78;100.00
57990;BME280;58373;51.824;5.564;2024-03-06T10:29:31;102234.56;;;4.86;100.00
57990;BME280;58373;51.824;5.564;2024-03-06T10:31:57;102246.44;;;4.90;100.00
57990;BME280;58373;51.824;5.564;2024-03-06T10:34:24;102249.69;;;4.95;100.00
57990;BME280;58373;51.824;5.564;2024-03-06T10:37:00;102242.75;;;4.97;100.00
57990;BME280;58373;51.824;5.564;2024-03-06T10:39:26;102246.00;;;5.02;100.00
57990;BME280;58373;51.824;5.564;2024-03-06T10:44:17;102251.75;;;5.09;100.00
57990;BME280;58373;51.824;5.564;2024-03-06T10:46:45;102257.66;;;5.12;100.00
57990;BME280;58373;51.824;5.564;2024-03-06T10:49:12;102252.38;;;5.15;100.00
57990;BME280;58373;51.824;5.564;2024-03-06T10:51:38;102261.66;;;5.19;100.00
57990;BME280;58373;51.824;5.564;2024-03-06T10:54:07;102251.94;;;5.27;100.00
57990;BME280;58373;51.824;5.564;2024-03-06T10:56:33;102251.72;;;5.33;100.00
57990;BME280;58373;51.824;5.564;2024-03-06T10:58:58;102248.94;;;5.40;100.00
57990;BME280;58373;51.824;5.564;2024-03-06T11:01:24;102252.16;;;5.45;100.00
57990;BME280;58373;51.824;5.564;2024-03-06T11:03:50;102259.66;;;5.51;100.00
57990;BME280;58373;51.824;5.564;2024-03-06T11:06:15;102250.91;;;5.55;100.00
57990;BME280;58373;51.824;5.564;2024-03-06T11:08:41;102257.63;;;5.59;100.00
57990;BME280;58373;51.824;5.564;2024-03-06T11:11:19;102259.91;;;5.67;100.00
57990;BME280;58373;51.824;5.564;2024-03-06T11:13:45;102269.13;;;5.72;100.00
57990;BME280;58373;51.824;5.564;2024-03-06T11:16:11;102266.44;;;5.75;100.00
57990;BME280;58373;51.824;5.564;2024-03-06T11:23:26;102261.84;;;5.83;100.00
57990;BME280;58373;51.824;5.564;2024-03-06T11:28:21;102266.53;;;5.96;100.00
57990;BME280;58373;51.824;5.564;2024-03-06T11:30:47;102257.03;;;5.98;100.00
57990;BME280;58373;51.824;5.564;2024-03-06T11:33:14;102263.97;;;5.96;100.00
57990;BME280;58373;51.824;5.564;2024-03-06T11:35:43;102270.00;;;5.95;100.00
57990;BME280;58373;51.824;5.564;2024-03-06T11:38:16;102269.06;;;5.97;100.00
57990;BME280;58373;51.824;5.564;2024-03-06T11:40:44;102269.91;;;5.98;100.00
57990;BME280;58373;51.824;5.564;2024-03-06T11:43:22;102268.88;;;6.02;100.00
57990;BME280;58373;51.824;5.564;2024-03-06T11:45:48;102276.31;;;6.09;100.00
57990;BME280;58373;51.824;5.564;2024-03-06T11:48:14;102278.66;;;6.16;100.00
57990;BME280;58373;51.824;5.564;2024-03-06T11:50:42;102271.69;;;6.18;100.00
57990;BME280;58373;51.824;5.564;2024-03-06T11:53:08;102275.63;;;6.26;100.00
57990;BME280;58373;51.824;5.564;2024-03-06T11:55:33;102280.28;;;6.38;100.00
57990;BME280;58373;51.824;5.564;2024-03-06T11:57:58;102272.13;;;6.49;100.00
57990;BME280;58373;51.824;5.564;2024-03-06T12:00:24;102274.88;;;6.65;100.00
57990;BME280;58373;51.824;5.564;2024-03-06T12:02:49;102275.81;;;6.84;100.00
57990;BME280;58373;51.824;5.564;2024-03-06T12:05:15;102270.88;;;6.99;100.00
57990;BME280;58373;51.824;5.564;2024-03-06T12:07:47;102272.91;;;7.11;100.00
57990;BME280;58373;51.824;5.564;2024-03-06T12:10:12;102281.09;;;7.21;100.00
57990;BME280;58373;51.824;5.564;2024-03-06T12:12:38;102278.16;;;7.28;100.00
57990;BME280;58373;51.824;5.564;2024-03-06T12:15:05;102277.91;;;7.34;100.00
57990;BME280;58373;51.824;5.564;2024-03-06T12:17:31;102277.50;;;7.43;100.00
57990;BME280;58373;51.824;5.564;2024-03-06T12:19:57;102283.16;;;7.52;100.00
57990;BME280;58373;51.824;5.564;2024-03-06T12:22:25;102283.22;;;7.69;100.00
57990;BME280;58373;51.824;5.564;2024-03-06T12:25:00;102281.41;;;7.71;100.00
57990;BME280;58373;51.824;5.564;2024-03-06T12:27:25;102281.88;;;7.79;100.00
57990;BME280;58373;51.824;5.564;2024-03-06T12:29:52;102279.72;;;7.89;100.00
57990;BME280;58373;51.824;5.564;2024-03-06T12:32:17;102281.16;;;7.94;100.00
57990;BME280;58373;51.824;5.564;2024-03-06T12:34:43;102286.03;;;8.01;100.00
57990;BME280;58373;51.824;5.564;2024-03-06T12:37:08;102279.53;;;8.11;100.00
57990;BME280;58373;51.824;5.564;2024-03-06T12:39:35;102273.75;;;8.23;100.00
57990;BME280;58373;51.824;5.564;2024-03-06T12:42:00;102280.31;;;8.30;100.00
57990;BME280;58373;51.824;5.564;2024-03-06T12:44:26;102271.50;;;8.34;100.00
57990;BME280;58373;51.824;5.564;2024-03-06T12:46:51;102278.75;;;8.45;100.00
57990;BME280;58373;51.824;5.564;2024-03-06T12:49:17;102270.78;;;8.49;100.00
57990;BME280;58373;51.824;5.564;2024-03-06T12:51:43;102272.97;;;8.57;100.00